sensor_id;sensor_type;location;lat;lon;timestamp;pressure;altitude;pressure_sealevel;temperature;humidity
11198;BME280;5655;48.744;9.162;2022-11-14T00:00:26;96099.94;;;5.33;100.00
11198;BME280;5655;48.744;9.162;2022-11-14T00:02:52;96098.53;;;5.11;100.00
11198;BME280;5655;48.744;9.162;2022-11-14T00:05:18;96100.53;;;5.02;100.00
11198;BME280;5655;48.744;9.162;2022-11-14T00:07:44;96097.44;;;4.88;100.00
11198;BME280;5655;48.744;9.162;2022-11-14T00:10:12;96100.50;;;5.14;100.00
11198;BME280;5655;48.744;9.162;2022-11-14T00:12:37;96104.63;;;4.87;100.00
11198;BME280;5655;48.744;9.162;2022-11-14T00:15:03;96100.34;;;4.83;100.00
11198;BME280;5655;48.744;9.162;2022-11-14T00:17:28;96092.81;;;4.73;100.00
11198;BME280;5655;48.744;9.162;2022-11-14T00:19:53;96102.41;;;4.89;100.00
11198;BME280;5655;48.744;9.162;2022-11-14T00:22:19;96102.22;;;4.70;100.00
11198;BME280;5655;48.744;9.162;2022-11-14T00:24:44;96099.53;;;5.07;100.00
11198;BME280;5655;48.744;9.162;2022-11-14T00:27:09;96096.69;;;4.87;100.00
11198;BME280;5655;48.744;9.162;2022-11-14T00:29:36;96092.59;;;4.78;100.00
11198;BME280;5655;48.744;9.162;2022-11-14T00:32:02;96089.16;;;4.65;100.00
11198;BME280;5655;48.744;9.162;2022-11-14T00:34:27;96096.22;;;4.97;100.00
11198;BME280;5655;48.744;9.162;2022-11-14T00:36:52;96096.78;;;4.91;100.00
11198;BME280;5655;48.744;9.162;2022-11-14T00:39:17;96092.78;;;5.09;100.00
11198;BME280;5655;48.744;9.162;2022-11-14T00:41:43;96090.91;;;5.22;100.00
11198;BME280;5655;48.744;9.162;2022-11-14T00:44:08;96084.72;;;5.18;100.00
11198;BME280;5655;48.744;9.162;2022-11-14T00:46:35;96078.78;;;4.72;100.00
11198;BME280;5655;48.744;9.162;2022-11-14T00:49:01;96076.34;;;4.91;100.00
11198;BME280;5655;48.744;9.162;2022-11-14T00:51:26;96069.50;;;4.78;100.00
11198;BME280;5655;48.744;9.162;2022-11-14T00:53:51;96061.75;;;4.85;100.00
11198;BME280;5655;48.744;9.162;2022-11-14T00:56:17;96072.13;;;5.02;100.00
11198;BME280;5655;48.744;9.162;2022-11-14T00:58:43;96072.81;;;4.99;100.00
11198;BME280;5655;48.744;9.162;2022-11-14T01:01:08;96060.00;;;4.89;100.00
11198;BME280;5655;48.744;9.162;2022-11-14T01:03:33;96069.47;;;4.66;100.00
11198;BME280;5655;48.744;9.162;2022-11-14T01:06:06;96069.72;;;4.73;100.00
11198;BME280;5655;48.744;9.162;2022-11-14T01:08:33;96062.44;;;4.82;100.00
11198;BME280;5655;48.744;9.162;2022-11-14T01:10:58;96058.88;;;4.90;100.00
11198;BME280;5655;48.744;9.162;2022-11-14T01:13:25;96060.91;;;4.69;100.00
11198;BME280;5655;48.744;9.162;2022-11-14T01:15:50;96058.66;;;4.71;100.00
11198;BME280;5655;48.744;9.162;2022-11-14T01:18:19;96057.25;;;4.86;100.00
11198;BME280;5655;48.744;9.162;2022-11-14T01:20:46;96061.97;;;4.92;100.00
11198;BME280;5655;48.744;9.162;2022-11-14T01:23:14;96060.00;;;4.89;100.00
11198;BME280;5655;48.744;9.162;2022-11-14T01:25:41;96057.34;;;4.89;100.00
11198;BME280;5655;48.744;9.162;2022-11-14T01:28:08;96054.72;;;4.65;100.00
11198;BME280;5655;48.744;9.162;2022-11-14T01:30:34;96044.53;;;4.67;100.00
11198;BME280;5655;48.744;9.162;2022-11-14T01:33:00;96048.94;;;4.63;100.00
11198;BME280;5655;48.744;9.162;2022-11-14T01:35:25;96053.25;;;5.04;100.00
11198;BME280;5655;48.744;9.162;2022-11-14T01:37:51;96048.72;;;5.05;100.00
11198;BME280;5655;48.744;9.162;2022-11-14T01:40:16;96038.13;;;4.80;100.00
11198;BME280;5655;48.744;9.162;2022-11-14T01:42:42;96042.97;;;4.66;100.00
11198;BME280;5655;48.744;9.162;2022-11-14T01:48:18;96038.84;;;5.17;100.00
11198;BME280;5655;48.744;9.162;2022-11-14T01:50:47;96045.50;;;4.99;100.00
11198;BME280;5655;48.744;9.162;2022-11-14T01:53:14;96034.56;;;4.88;100.00
11198;BME280;5655;48.744;9.162;2022-11-14T01:55:39;96020.28;;;5.05;100.00
11198;BME280;5655;48.744;9.162;2022-11-14T01:58:05;96028.69;;;5.07;100.00
11198;BME280;5655;48.744;9.162;2022-11-14T02:00:30;96031.50;;;4.86;100.00
11198;BME280;5655;48.744;9.162;2022-11-14T02:02:57;96030.56;;;5.07;100.00
11198;BME280;5655;48.744;9.162;2022-11-14T02:05:23;96023.72;;;5.18;100.00
11198;BME280;5655;48.744;9.162;2022-11-14T02:07:48;96027.97;;;5.22;100.00
11198;BME280;5655;48.744;9.162;2022-11-14T02:10:16;96029.25;;;5.13;100.00
11198;BME280;5655;48.744;9.162;2022-11-14T02:12:43;96034.31;;;5.06;100.00
11198;BME280;5655;48.744;9.162;2022-11-14T02:15:08;96032.50;;;4.82;100.00
11198;BME280;5655;48.744;9.162;2022-11-14T02:17:34;96038.56;;;4.94;100.00
11198;BME280;5655;48.744;9.162;2022-11-14T02:22:34;96038.13;;;4.68;100.00
11198;BME280;5655;48.744;9.162;2022-11-14T02:24:59;96040.09;;;4.95;100.00
11198;BME280;5655;48.744;9.162;2022-11-14T02:27:25;96041.31;;;4.86;100.00
11198;BME280;5655;48.744;9.162;2022-11-14T02:29:50;96032.16;;;4.83;100.00
11198;BME280;5655;48.744;9.162;2022-11-14T02:32:16;96047.41;;;4.86;100.00
11198;BME280;5655;48.744;9.162;2022-11-14T02:34:41;96056.66;;;4.92;100.00
11198;BME280;5655;48.744;9.162;2022-11-14T02:37:06;96048.75;;;4.56;100.00
11198;BME280;5655;48.744;9.162;2022-11-14T02:39:32;96045.00;;;4.57;100.00
11198;BME280;5655;48.744;9.162;2022-11-14T02:41:57;96039.91;;;4.52;100.00
11198;BME280;5655;48.744;9.162;2022-11-14T02:44:22;96036.94;;;4.66;100.00
11198;BME280;5655;48.744;9.162;2022-11-14T02:46:48;96028.97;;;4.29;100.00
11198;BME280;5655;48.744;9.162;2022-11-14T02:49:13;96043.50;;;4.23;100.00
11198;BME280;5655;48.744;9.162;2022-11-14T02:51:38;96046.19;;;4.47;100.00
11198;BME280;5655;48.744;9.162;2022-11-14T02:54:05;96047.72;;;4.24;100.00
11198;BME280;5655;48.744;9.162;2022-11-14T02:56:31;96049.88;;;4.10;100.00
11198;BME280;5655;48.744;9.162;2022-11-14T02:58:56;96056.13;;;4.26;100.00
11198;BME280;5655;48.744;9.162;2022-11-14T03:01:21;96057.50;;;4.11;100.00
11198;BME280;5655;48.744;9.162;2022-11-14T03:03:47;96061.34;;;4.02;100.00
11198;BME280;5655;48.744;9.162;2022-11-14T03:06:12;96064.38;;;4.13;100.00
11198;BME280;5655;48.744;9.162;2022-11-14T03:08:37;96070.94;;;3.94;100.00
11198;BME280;5655;48.744;9.162;2022-11-14T03:11:07;96073.00;;;4.34;100.00
11198;BME280;5655;48.744;9.162;2022-11-14T03:13:33;96056.84;;;4.15;100.00
11198;BME280;5655;48.744;9.162;2022-11-14T03:16:10;96052.50;;;4.43;100.00
11198;BME280;5655;48.744;9.162;2022-11-14T03:18:35;96047.81;;;4.28;100.00
11198;BME280;5655;48.744;9.162;2022-11-14T03:21:08;96039.28;;;4.10;100.00
11198;BME280;5655;48.744;9.162;2022-11-14T03:23:34;96027.28;;;4.13;100.00
11198;BME280;5655;48.744;9.162;2022-11-14T03:26:00;96035.84;;;3.97;100.00
11198;BME280;5655;48.744;9.162;2022-11-14T03:28:26;96027.09;;;4.18;100.00
11198;BME280;5655;48.744;9.162;2022-11-14T03:30:52;96025.72;;;4.11;100.00
11198;BME280;5655;48.744;9.162;2022-11-14T03:33:17;96032.09;;;3.86;100.00
11198;BME280;5655;48.744;9.162;2022-11-14T03:35:42;96027.47;;;3.95;100.00
11198;BME280;5655;48.744;9.162;2022-11-14T03:38:08;96026.22;;;3.48;100.00
11198;BME280;5655;48.744;9.162;2022-11-14T03:40:33;96024.41;;;3.60;100.00
11198;BME280;5655;48.744;9.162;2022-11-14T03:42:58;96020.84;;;3.89;100.00
11198;BME280;5655;48.744;9.162;2022-11-14T03:45:24;96017.13;;;3.57;100.00
11198;BME280;5655;48.744;9.162;2022-11-14T03:47:49;96020.00;;;3.32;100.00
11198;BME280;5655;48.744;9.162;2022-11-14T03:50:15;96027.28;;;3.35;100.00
11198;BME280;5655;48.744;9.162;2022-11-14T03:52:40;96035.78;;;3.73;100.00
11198;BME280;5655;48.744;9.162;2022-11-14T03:55:06;96048.25;;;3.73;100.00
11198;BME280;5655;48.744;9.162;2022-11-14T03:57:31;96054.44;;;3.77;100.00
11198;BME280;5655;48.744;9.162;2022-11-14T03:59:56;96052.38;;;3.82;100.00
11198;BME280;5655;48.744;9.162;2022-11-14T04:02:21;96062.28;;;3.85;100.00
11198;BME280;5655;48.744;9.162;2022-11-14T04:04:47;96059.66;;;3.85;100.00
11198;BME280;5655;48.744;9.162;2022-11-14T04:07:12;96051.19;;;3.92;100.00
11198;BME280;5655;48.744;9.162;2022-11-14T04:09:37;96049.25;;;3.80;100.00
11198;BME280;5655;48.744;9.162;2022-11-14T04:12:03;96037.03;;;3.55;100.00
11198;BME280;5655;48.744;9.162;2022-11-14T04:14:28;96043.25;;;3.59;100.00
11198;BME280;5655;48.744;9.162;2022-11-14T04:16:53;96047.59;;;3.43;100.00
11198;BME280;5655;48.744;9.162;2022-11-14T04:19:19;96042.75;;;3.45;100.00
11198;BME280;5655;48.744;9.162;2022-11-14T04:21:44;96053.59;;;3.52;100.00
11198;BME280;5655;48.744;9.162;2022-11-14T04:24:09;96047.16;;;3.74;100.00
11198;BME280;5655;48.744;9.162;2022-11-14T04:26:34;96046.06;;;3.54;100.00
11198;BME280;5655;48.744;9.162;2022-11-14T04:29:00;96041.78;;;3.82;100.00
11198;BME280;5655;48.744;9.162;2022-11-14T04:31:25;96024.59;;;3.88;100.00
11198;BME280;5655;48.744;9.162;2022-11-14T04:33:50;96027.66;;;3.78;100.00
11198;BME280;5655;48.744;9.162;2022-11-14T04:36:16;96025.72;;;3.99;100.00
11198;BME280;5655;48.744;9.162;2022-11-14T04:38:41;96023.50;;;4.01;100.00
11198;BME280;5655;48.744;9.162;2022-11-14T04:41:06;96001.91;;;4.36;100.00
11198;BME280;5655;48.744;9.162;2022-11-14T04:43:32;95997.84;;;4.26;100.00
11198;BME280;5655;48.744;9.162;2022-11-14T04:45:57;96001.03;;;4.20;100.00
11198;BME280;5655;48.744;9.162;2022-11-14T04:48:22;96012.72;;;4.19;100.00
11198;BME280;5655;48.744;9.162;2022-11-14T04:50:48;96007.66;;;4.50;100.00
11198;BME280;5655;48.744;9.162;2022-11-14T04:53:13;96004.59;;;4.48;100.00
11198;BME280;5655;48.744;9.162;2022-11-14T04:55:38;96013.31;;;4.48;100.00
11198;BME280;5655;48.744;9.162;2022-11-14T04:58:03;95996.19;;;4.46;100.00
11198;BME280;5655;48.744;9.162;2022-11-14T05:00:29;95994.41;;;4.62;100.00
11198;BME280;5655;48.744;9.162;2022-11-14T05:02:54;95987.78;;;4.68;100.00
11198;BME280;5655;48.744;9.162;2022-11-14T05:05:22;95979.63;;;4.61;100.00
11198;BME280;5655;48.744;9.162;2022-11-14T05:07:47;95971.78;;;4.65;100.00
11198;BME280;5655;48.744;9.162;2022-11-14T05:10:12;95966.47;;;4.65;100.00
11198;BME280;5655;48.744;9.162;2022-11-14T05:12:38;95956.88;;;4.48;100.00
11198;BME280;5655;48.744;9.162;2022-11-14T05:15:03;95958.97;;;4.54;100.00
11198;BME280;5655;48.744;9.162;2022-11-14T05:17:29;95967.59;;;4.51;100.00
11198;BME280;5655;48.744;9.162;2022-11-14T05:19:54;95978.50;;;4.62;100.00
11198;BME280;5655;48.744;9.162;2022-11-14T05:22:19;95974.19;;;4.57;100.00
11198;BME280;5655;48.744;9.162;2022-11-14T05:24:44;95961.63;;;4.54;100.00
11198;BME280;5655;48.744;9.162;2022-11-14T05:27:10;95952.88;;;4.66;100.00
11198;BME280;5655;48.744;9.162;2022-11-14T05:29:35;95957.28;;;4.62;100.00
11198;BME280;5655;48.744;9.162;2022-11-14T05:32:00;95959.25;;;4.77;100.00
11198;BME280;5655;48.744;9.162;2022-11-14T05:34:26;95962.56;;;4.86;100.00
11198;BME280;5655;48.744;9.162;2022-11-14T05:36:51;95960.97;;;4.97;100.00
11198;BME280;5655;48.744;9.162;2022-11-14T05:39:17;95963.34;;;4.75;100.00
11198;BME280;5655;48.744;9.162;2022-11-14T05:41:42;95952.16;;;4.93;100.00
11198;BME280;5655;48.744;9.162;2022-11-14T05:44:07;95944.44;;;4.88;100.00
11198;BME280;5655;48.744;9.162;2022-11-14T05:46:33;95948.81;;;5.09;100.00
11198;BME280;5655;48.744;9.162;2022-11-14T05:48:58;95936.69;;;4.83;100.00
11198;BME280;5655;48.744;9.162;2022-11-14T05:51:23;95941.34;;;4.86;100.00
11198;BME280;5655;48.744;9.162;2022-11-14T05:53:49;95958.03;;;5.15;100.00
11198;BME280;5655;48.744;9.162;2022-11-14T05:56:14;95953.03;;;4.97;100.00
11198;BME280;5655;48.744;9.162;2022-11-14T05:58:39;95952.25;;;4.97;100.00
11198;BME280;5655;48.744;9.162;2022-11-14T06:01:06;95948.63;;;4.89;100.00
11198;BME280;5655;48.744;9.162;2022-11-14T06:03:34;95961.59;;;4.79;100.00
11198;BME280;5655;48.744;9.162;2022-11-14T06:06:01;95965.25;;;4.74;100.00
11198;BME280;5655;48.744;9.162;2022-11-14T06:08:27;95978.72;;;4.69;100.00
11198;BME280;5655;48.744;9.162;2022-11-14T06:10:53;95973.88;;;4.59;100.00
11198;BME280;5655;48.744;9.162;2022-11-14T06:13:19;95972.59;;;4.93;100.00
11198;BME280;5655;48.744;9.162;2022-11-14T06:15:44;95984.84;;;4.97;100.00
11198;BME280;5655;48.744;9.162;2022-11-14T06:18:09;95979.47;;;5.22;100.00
11198;BME280;5655;48.744;9.162;2022-11-14T06:20:35;95973.41;;;5.09;100.00
11198;BME280;5655;48.744;9.162;2022-11-14T06:23:00;95965.53;;;5.25;100.00
11198;BME280;5655;48.744;9.162;2022-11-14T06:25:25;95972.13;;;5.03;100.00
11198;BME280;5655;48.744;9.162;2022-11-14T06:27:51;95975.81;;;5.26;100.00
11198;BME280;5655;48.744;9.162;2022-11-14T06:30:16;95973.03;;;5.35;100.00
11198;BME280;5655;48.744;9.162;2022-11-14T06:32:42;95976.28;;;5.44;100.00
11198;BME280;5655;48.744;9.162;2022-11-14T06:35:07;95983.03;;;5.41;100.00
11198;BME280;5655;48.744;9.162;2022-11-14T06:37:35;95975.81;;;5.54;100.00
11198;BME280;5655;48.744;9.162;2022-11-14T06:40:01;95987.19;;;5.27;100.00
11198;BME280;5655;48.744;9.162;2022-11-14T06:42:26;95986.31;;;5.51;100.00
11198;BME280;5655;48.744;9.162;2022-11-14T06:44:51;95979.06;;;5.63;100.00
11198;BME280;5655;48.744;9.162;2022-11-14T06:47:16;95987.47;;;5.65;100.00
11198;BME280;5655;48.744;9.162;2022-11-14T06:49:42;95983.13;;;5.45;100.00
11198;BME280;5655;48.744;9.162;2022-11-14T06:52:07;95982.84;;;5.62;100.00
11198;BME280;5655;48.744;9.162;2022-11-14T06:54:32;95970.88;;;5.68;100.00
11198;BME280;5655;48.744;9.162;2022-11-14T06:56:58;95968.28;;;5.56;100.00
11198;BME280;5655;48.744;9.162;2022-11-14T06:59:23;95960.41;;;5.75;100.00
11198;BME280;5655;48.744;9.162;2022-11-14T07:01:48;95953.31;;;5.64;100.00
11198;BME280;5655;48.744;9.162;2022-11-14T07:04:14;95964.94;;;5.75;100.00
11198;BME280;5655;48.744;9.162;2022-11-14T07:06:39;95957.34;;;5.73;100.00
11198;BME280;5655;48.744;9.162;2022-11-14T07:09:04;95954.88;;;5.80;100.00
11198;BME280;5655;48.744;9.162;2022-11-14T07:11:30;95959.19;;;6.01;100.00
11198;BME280;5655;48.744;9.162;2022-11-14T07:14:00;95956.19;;;6.18;100.00
11198;BME280;5655;48.744;9.162;2022-11-14T07:16:28;95955.50;;;6.21;100.00
11198;BME280;5655;48.744;9.162;2022-11-14T07:18:55;95957.81;;;6.07;100.00
11198;BME280;5655;48.744;9.162;2022-11-14T07:21:21;95962.88;;;6.12;100.00
11198;BME280;5655;48.744;9.162;2022-11-14T07:23:46;95960.47;;;6.07;100.00
11198;BME280;5655;48.744;9.162;2022-11-14T07:26:12;95961.34;;;5.95;100.00
11198;BME280;5655;48.744;9.162;2022-11-14T07:28:42;95966.81;;;6.18;100.00
11198;BME280;5655;48.744;9.162;2022-11-14T07:31:09;95962.63;;;6.32;100.00
11198;BME280;5655;48.744;9.162;2022-11-14T07:33:36;95961.22;;;5.91;100.00
11198;BME280;5655;48.744;9.162;2022-11-14T07:36:02;95962.69;;;6.05;100.00
11198;BME280;5655;48.744;9.162;2022-11-14T07:38:29;95967.06;;;5.97;100.00
11198;BME280;5655;48.744;9.162;2022-11-14T07:40:56;95971.47;;;5.77;100.00
11198;BME280;5655;48.744;9.162;2022-11-14T07:43:22;95969.84;;;5.73;100.00
11198;BME280;5655;48.744;9.162;2022-11-14T07:45:48;95971.03;;;5.75;100.00
11198;BME280;5655;48.744;9.162;2022-11-14T07:48:14;95983.63;;;5.90;100.00
11198;BME280;5655;48.744;9.162;2022-11-14T07:50:40;95987.16;;;5.82;100.00
11198;BME280;5655;48.744;9.162;2022-11-14T07:53:05;95996.03;;;5.74;100.00
11198;BME280;5655;48.744;9.162;2022-11-14T07:55:34;95999.88;;;6.05;100.00
11198;BME280;5655;48.744;9.162;2022-11-14T07:57:59;96008.28;;;6.07;100.00
11198;BME280;5655;48.744;9.162;2022-11-14T08:00:25;96004.44;;;6.20;100.00
11198;BME280;5655;48.744;9.162;2022-11-14T08:02:50;96009.84;;;6.39;100.00
11198;BME280;5655;48.744;9.162;2022-11-14T08:05:16;96014.47;;;6.42;100.00
11198;BME280;5655;48.744;9.162;2022-11-14T08:07:42;96016.09;;;6.62;100.00
11198;BME280;5655;48.744;9.162;2022-11-14T08:10:08;96028.69;;;6.65;100.00
11198;BME280;5655;48.744;9.162;2022-11-14T08:12:35;96024.22;;;6.85;100.00
11198;BME280;5655;48.744;9.162;2022-11-14T08:15:02;96022.16;;;6.78;100.00
11198;BME280;5655;48.744;9.162;2022-11-14T08:17:28;96023.31;;;6.97;100.00
11198;BME280;5655;48.744;9.162;2022-11-14T08:19:53;96031.34;;;7.16;100.00
11198;BME280;5655;48.744;9.162;2022-11-14T08:22:18;96045.06;;;7.18;100.00
11198;BME280;5655;48.744;9.162;2022-11-14T08:24:44;96042.56;;;7.44;100.00
11198;BME280;5655;48.744;9.162;2022-11-14T08:27:09;96045.16;;;7.60;100.00
11198;BME280;5655;48.744;9.162;2022-11-14T08:29:34;96048.13;;;7.55;100.00
11198;BME280;5655;48.744;9.162;2022-11-14T08:32:00;96051.97;;;7.57;100.00
11198;BME280;5655;48.744;9.162;2022-11-14T08:34:25;96055.81;;;7.60;100.00
11198;BME280;5655;48.744;9.162;2022-11-14T08:36:50;96069.00;;;7.72;100.00
11198;BME280;5655;48.744;9.162;2022-11-14T08:39:16;96076.22;;;7.91;100.00
11198;BME280;5655;48.744;9.162;2022-11-14T08:41:41;96079.31;;;7.93;100.00
11198;BME280;5655;48.744;9.162;2022-11-14T08:44:06;96086.88;;;7.91;100.00
11198;BME280;5655;48.744;9.162;2022-11-14T08:46:32;96092.47;;;8.05;100.00
11198;BME280;5655;48.744;9.162;2022-11-14T08:48:57;96086.59;;;8.15;100.00
11198;BME280;5655;48.744;9.162;2022-11-14T08:51:22;96082.34;;;8.33;100.00
11198;BME280;5655;48.744;9.162;2022-11-14T08:53:47;96090.72;;;8.54;100.00
11198;BME280;5655;48.744;9.162;2022-11-14T08:56:13;96089.13;;;8.73;100.00
11198;BME280;5655;48.744;9.162;2022-11-14T08:58:38;96088.28;;;8.69;100.00
11198;BME280;5655;48.744;9.162;2022-11-14T09:01:05;96097.38;;;9.13;100.00
11198;BME280;5655;48.744;9.162;2022-11-14T09:03:31;96097.31;;;9.09;100.00
11198;BME280;5655;48.744;9.162;2022-11-14T09:05:58;96105.69;;;9.08;100.00
11198;BME280;5655;48.744;9.162;2022-11-14T09:08:23;96111.94;;;9.19;100.00
11198;BME280;5655;48.744;9.162;2022-11-14T09:10:49;96103.63;;;9.24;100.00
11198;BME280;5655;48.744;9.162;2022-11-14T09:13:14;96094.78;;;8.94;100.00
11198;BME280;5655;48.744;9.162;2022-11-14T09:15:41;96078.44;;;9.22;100.00
11198;BME280;5655;48.744;9.162;2022-11-14T09:18:08;96091.53;;;9.30;100.00
11198;BME280;5655;48.744;9.162;2022-11-14T09:20:33;96086.69;;;9.13;100.00
11198;BME280;5655;48.744;9.162;2022-11-14T09:23:00;96089.94;;;9.26;100.00
11198;BME280;5655;48.744;9.162;2022-11-14T09:25:26;96089.66;;;9.08;100.00
11198;BME280;5655;48.744;9.162;2022-11-14T09:27:52;96090.00;;;9.33;100.00
11198;BME280;5655;48.744;9.162;2022-11-14T09:30:17;96083.91;;;9.32;100.00
11198;BME280;5655;48.744;9.162;2022-11-14T09:32:43;96078.69;;;9.39;100.00
11198;BME280;5655;48.744;9.162;2022-11-14T09:35:08;96084.13;;;9.50;100.00
11198;BME280;5655;48.744;9.162;2022-11-14T09:37:34;96083.66;;;9.71;100.00
11198;BME280;5655;48.744;9.162;2022-11-14T09:40:00;96078.13;;;9.56;100.00
11198;BME280;5655;48.744;9.162;2022-11-14T09:45:15;96069.63;;;9.47;100.00
11198;BME280;5655;48.744;9.162;2022-11-14T09:47:53;96086.28;;;9.67;100.00
11198;BME280;5655;48.744;9.162;2022-11-14T09:50:26;96081.41;;;9.76;100.00
11198;BME280;5655;48.744;9.162;2022-11-14T09:53:02;96075.47;;;9.90;100.00
11198;BME280;5655;48.744;9.162;2022-11-14T09:55:32;96070.56;;;9.62;100.00
11198;BME280;5655;48.744;9.162;2022-11-14T09:57:58;96058.63;;;9.86;100.00
11198;BME280;5655;48.744;9.162;2022-11-14T10:00:28;96061.63;;;9.81;100.00
11198;BME280;5655;48.744;9.162;2022-11-14T10:10:53;96073.03;;;10.11;100.00
11198;BME280;5655;48.744;9.162;2022-11-14T10:24:16;96070.97;;;10.71;100.00
11198;BME280;5655;48.744;9.162;2022-11-14T10:26:56;96075.50;;;10.64;100.00
11198;BME280;5655;48.744;9.162;2022-11-14T10:32:04;96078.97;;;10.68;100.00
11198;BME280;5655;48.744;9.162;2022-11-14T10:34:45;96068.66;;;10.70;100.00
11198;BME280;5655;48.744;9.162;2022-11-14T10:40:15;96061.03;;;10.72;100.00
11198;BME280;5655;48.744;9.162;2022-11-14T10:42:45;96062.47;;;10.62;100.00
11198;BME280;5655;48.744;9.162;2022-11-14T10:47:52;96053.56;;;10.95;100.00
11198;BME280;5655;48.744;9.162;2022-11-14T10:50:21;96045.88;;;10.90;100.00
11198;BME280;5655;48.744;9.162;2022-11-14T10:52:51;96040.66;;;11.11;100.00
11198;BME280;5655;48.744;9.162;2022-11-14T10:55:19;96043.38;;;10.64;100.00
11198;BME280;5655;48.744;9.162;2022-11-14T10:57:45;96046.97;;;10.85;100.00
11198;BME280;5655;48.744;9.162;2022-11-14T11:00:12;96044.38;;;10.96;100.00
11198;BME280;5655;48.744;9.162;2022-11-14T11:02:55;96043.72;;;11.13;100.00
11198;BME280;5655;48.744;9.162;2022-11-14T11:05:24;96033.22;;;11.52;100.00
11198;BME280;5655;48.744;9.162;2022-11-14T11:07:50;96035.94;;;11.56;100.00
11198;BME280;5655;48.744;9.162;2022-11-14T11:10:38;96032.47;;;11.55;100.00
11198;BME280;5655;48.744;9.162;2022-11-14T11:13:30;96028.00;;;11.77;100.00
11198;BME280;5655;48.744;9.162;2022-11-14T11:15:58;96008.88;;;11.86;100.00
11198;BME280;5655;48.744;9.162;2022-11-14T11:18:29;96005.13;;;12.33;100.00
11198;BME280;5655;48.744;9.162;2022-11-14T11:21:09;95996.72;;;12.55;100.00
11198;BME280;5655;48.744;9.162;2022-11-14T11:23:47;95980.94;;;12.18;100.00
11198;BME280;5655;48.744;9.162;2022-11-14T11:26:19;95977.09;;;12.12;100.00
11198;BME280;5655;48.744;9.162;2022-11-14T11:29:00;95987.50;;;12.28;100.00
11198;BME280;5655;48.744;9.162;2022-11-14T11:31:26;95972.47;;;11.95;100.00
11198;BME280;5655;48.744;9.162;2022-11-14T11:33:51;95973.66;;;12.08;100.00
11198;BME280;5655;48.744;9.162;2022-11-14T11:36:18;95967.13;;;11.95;100.00
11198;BME280;5655;48.744;9.162;2022-11-14T11:38:45;95970.59;;;11.99;100.00
11198;BME280;5655;48.744;9.162;2022-11-14T11:41:22;95968.69;;;12.28;100.00
11198;BME280;5655;48.744;9.162;2022-11-14T11:44:06;95966.78;;;12.14;100.00
11198;BME280;5655;48.744;9.162;2022-11-14T11:47:15;95966.00;;;12.21;100.00
11198;BME280;5655;48.744;9.162;2022-11-14T11:49:50;95957.59;;;12.33;100.00
11198;BME280;5655;48.744;9.162;2022-11-14T11:55:13;95947.97;;;12.21;100.00
11198;BME280;5655;48.744;9.162;2022-11-14T11:57:52;95949.88;;;11.93;100.00
11198;BME280;5655;48.744;9.162;2022-11-14T12:00:21;95947.56;;;11.88;100.00
11198;BME280;5655;48.744;9.162;2022-11-14T12:02:50;95946.47;;;12.03;100.00
11198;BME280;5655;48.744;9.162;2022-11-14T12:11:04;95940.72;;;12.18;100.00
11198;BME280;5655;48.744;9.162;2022-11-14T12:14:05;95951.44;;;12.15;100.00
11198;BME280;5655;48.744;9.162;2022-11-14T12:27:23;95932.25;;;12.52;100.00
11198;BME280;5655;48.744;9.162;2022-11-14T12:30:03;95928.81;;;12.62;100.00
11198;BME280;5655;48.744;9.162;2022-11-14T12:32:49;95923.00;;;12.92;100.00
11198;BME280;5655;48.744;9.162;2022-11-14T12:35:23;95924.44;;;13.32;100.00
11198;BME280;5655;48.744;9.162;2022-11-14T12:37:51;95920.16;;;13.38;100.00
11198;BME280;5655;48.744;9.162;2022-11-14T12:42:50;95926.91;;;14.29;100.00
11198;BME280;5655;48.744;9.162;2022-11-14T12:50:41;95922.19;;;14.44;100.00
11198;BME280;5655;48.744;9.162;2022-11-14T13:09:31;95914.59;;;15.14;100.00
11198;BME280;5655;48.744;9.162;2022-11-14T13:11:58;95917.50;;;15.26;100.00
11198;BME280;5655;48.744;9.162;2022-11-14T13:18:12;95904.47;;;15.55;100.00
11198;BME280;5655;48.744;9.162;2022-11-14T13:21:02;95915.22;;;15.25;100.00
11198;BME280;5655;48.744;9.162;2022-11-14T13:33:42;95904.44;;;14.50;100.00
11198;BME280;5655;48.744;9.162;2022-11-14T13:36:33;95905.78;;;14.72;100.00
11198;BME280;5655;48.744;9.162;2022-11-14T13:48:27;95899.28;;;15.04;100.00
11198;BME280;5655;48.744;9.162;2022-11-14T13:50:35;95895.53;;;14.94;100.00
11198;BME280;5655;48.744;9.162;2022-11-14T13:53:14;95899.38;;;14.96;100.00
11198;BME280;5655;48.744;9.162;2022-11-14T14:09:36;95899.38;;;14.96;100.00
11198;BME280;5655;48.744;9.162;2022-11-14T14:14:52;95897.97;;;14.81;100.00
11198;BME280;5655;48.744;9.162;2022-11-14T14:17:29;95908.06;;;14.74;100.00
11198;BME280;5655;48.744;9.162;2022-11-14T14:20:13;95902.53;;;14.88;100.00
11198;BME280;5655;48.744;9.162;2022-11-14T14:23:01;95895.66;;;14.83;100.00
11198;BME280;5655;48.744;9.162;2022-11-14T14:25:43;95900.53;;;14.58;100.00
11198;BME280;5655;48.744;9.162;2022-11-14T14:31:15;95900.97;;;14.90;100.00
11198;BME280;5655;48.744;9.162;2022-11-14T14:33:46;95903.75;;;14.80;100.00
11198;BME280;5655;48.744;9.162;2022-11-14T14:38:46;95895.47;;;14.64;100.00
11198;BME280;5655;48.744;9.162;2022-11-14T14:41:14;95895.06;;;14.65;100.00
11198;BME280;5655;48.744;9.162;2022-11-14T14:43:48;95903.50;;;14.71;100.00
11198;BME280;5655;48.744;9.162;2022-11-14T14:46:14;95906.78;;;14.48;100.00
11198;BME280;5655;48.744;9.162;2022-11-14T14:48:42;95903.25;;;14.54;100.00
11198;BME280;5655;48.744;9.162;2022-11-14T14:51:12;95905.84;;;14.65;100.00
11198;BME280;5655;48.744;9.162;2022-11-14T14:53:38;95907.13;;;13.98;100.00
11198;BME280;5655;48.744;9.162;2022-11-14T14:56:12;95918.06;;;14.32;100.00
11198;BME280;5655;48.744;9.162;2022-11-14T14:58:41;95917.34;;;14.21;100.00
11198;BME280;5655;48.744;9.162;2022-11-14T15:01:14;95909.97;;;14.32;100.00
11198;BME280;5655;48.744;9.162;2022-11-14T15:03:47;95918.09;;;14.25;100.00
11198;BME280;5655;48.744;9.162;2022-11-14T15:06:26;95916.88;;;14.33;100.00
11198;BME280;5655;48.744;9.162;2022-11-14T15:09:19;95920.06;;;14.18;100.00
11198;BME280;5655;48.744;9.162;2022-11-14T15:11:49;95911.00;;;13.97;100.00
11198;BME280;5655;48.744;9.162;2022-11-14T15:14:18;95918.78;;;13.81;100.00